sensor_id;sensor_type;location;lat;lon;timestamp;P1;durP1;ratioP1;P2;durP2;ratioP2
18875;SDS011;9570;50.854;13.778;2023-09-19T00:01:05;2.60;;;1.20;;
18875;SDS011;9570;50.854;13.778;2023-09-19T00:03:36;2.67;;;1.50;;
18875;SDS011;9570;50.854;13.778;2023-09-19T00:06:02;3.13;;;1.40;;
18875;SDS011;9570;50.854;13.778;2023-09-19T00:08:29;3.03;;;1.90;;
18875;SDS011;9570;50.854;13.778;2023-09-19T00:10:55;2.53;;;1.50;;
18875;SDS011;9570;50.854;13.778;2023-09-19T00:13:21;2.83;;;1.47;;
18875;SDS011;9570;50.854;13.778;2023-09-19T00:15:47;2.93;;;1.47;;
18875;SDS011;9570;50.854;13.778;2023-09-19T00:18:13;3.93;;;1.70;;
18875;SDS011;9570;50.854;13.778;2023-09-19T00:20:40;2.80;;;1.70;;
18875;SDS011;9570;50.854;13.778;2023-09-19T00:23:07;3.70;;;1.30;;
18875;SDS011;9570;50.854;13.778;2023-09-19T00:25:36;5.97;;;1.40;;
18875;SDS011;9570;50.854;13.778;2023-09-19T00:28:02;3.50;;;1.37;;
18875;SDS011;9570;50.854;13.778;2023-09-19T00:30:29;2.83;;;1.50;;
18875;SDS011;9570;50.854;13.778;2023-09-19T00:32:55;3.53;;;1.70;;
18875;SDS011;9570;50.854;13.778;2023-09-19T00:35:20;3.73;;;1.67;;
18875;SDS011;9570;50.854;13.778;2023-09-19T00:37:48;2.27;;;1.40;;
18875;SDS011;9570;50.854;13.778;2023-09-19T00:40:14;2.70;;;1.27;;
18875;SDS011;9570;50.854;13.778;2023-09-19T00:42:43;3.20;;;1.57;;
18875;SDS011;9570;50.854;13.778;2023-09-19T00:45:12;3.03;;;1.67;;
18875;SDS011;9570;50.854;13.778;2023-09-19T00:47:40;3.10;;;1.70;;
18875;SDS011;9570;50.854;13.778;2023-09-19T00:50:07;2.00;;;1.30;;
18875;SDS011;9570;50.854;13.778;2023-09-19T00:52:35;2.63;;;1.70;;
18875;SDS011;9570;50.854;13.778;2023-09-19T00:55:07;4.83;;;1.70;;
18875;SDS011;9570;50.854;13.778;2023-09-19T00:57:35;8.33;;;1.53;;
18875;SDS011;9570;50.854;13.778;2023-09-19T01:00:03;6.13;;;1.43;;
18875;SDS011;9570;50.854;13.778;2023-09-19T01:02:31;5.53;;;1.67;;
18875;SDS011;9570;50.854;13.778;2023-09-19T01:04:57;3.53;;;1.77;;
18875;SDS011;9570;50.854;13.778;2023-09-19T01:07:23;2.60;;;1.63;;
18875;SDS011;9570;50.854;13.778;2023-09-19T01:09:49;7.40;;;1.70;;
18875;SDS011;9570;50.854;13.778;2023-09-19T01:12:16;4.47;;;1.63;;
18875;SDS011;9570;50.854;13.778;2023-09-19T01:14:55;2.70;;;1.53;;
18875;SDS011;9570;50.854;13.778;2023-09-19T01:17:35;2.73;;;1.50;;
18875;SDS011;9570;50.854;13.778;2023-09-19T01:28:20;5.00;;;1.73;;
18875;SDS011;9570;50.854;13.778;2023-09-19T01:30:58;3.03;;;1.50;;
18875;SDS011;9570;50.854;13.778;2023-09-19T01:33:26;4.83;;;1.70;;
18875;SDS011;9570;50.854;13.778;2023-09-19T01:35:52;3.67;;;1.50;;
18875;SDS011;9570;50.854;13.778;2023-09-19T01:38:22;3.77;;;1.40;;
18875;SDS011;9570;50.854;13.778;2023-09-19T01:40:52;3.03;;;1.43;;
18875;SDS011;9570;50.854;13.778;2023-09-19T01:43:33;6.13;;;1.60;;
18875;SDS011;9570;50.854;13.778;2023-09-19T01:48:46;2.73;;;1.40;;
18875;SDS011;9570;50.854;13.778;2023-09-19T01:51:51;2.43;;;1.40;;
18875;SDS011;9570;50.854;13.778;2023-09-19T01:54:51;2.27;;;1.50;;
18875;SDS011;9570;50.854;13.778;2023-09-19T02:00:00;2.63;;;1.20;;
18875;SDS011;9570;50.854;13.778;2023-09-19T02:02:31;4.40;;;1.50;;
18875;SDS011;9570;50.854;13.778;2023-09-19T02:05:01;2.00;;;1.10;;
18875;SDS011;9570;50.854;13.778;2023-09-19T02:07:28;2.27;;;1.47;;
18875;SDS011;9570;50.854;13.778;2023-09-19T02:09:56;1.43;;;1.23;;
18875;SDS011;9570;50.854;13.778;2023-09-19T02:12:24;2.83;;;1.10;;
18875;SDS011;9570;50.854;13.778;2023-09-19T02:14:49;3.00;;;1.30;;
18875;SDS011;9570;50.854;13.778;2023-09-19T02:17:15;1.40;;;1.20;;
18875;SDS011;9570;50.854;13.778;2023-09-19T02:19:41;1.67;;;1.10;;
18875;SDS011;9570;50.854;13.778;2023-09-19T02:22:06;1.87;;;1.30;;
18875;SDS011;9570;50.854;13.778;2023-09-19T02:24:32;1.40;;;1.07;;
18875;SDS011;9570;50.854;13.778;2023-09-19T02:26:58;3.07;;;1.10;;
18875;SDS011;9570;50.854;13.778;2023-09-19T02:29:28;2.00;;;1.10;;
18875;SDS011;9570;50.854;13.778;2023-09-19T02:31:54;1.30;;;1.20;;
18875;SDS011;9570;50.854;13.778;2023-09-19T02:34:21;2.57;;;1.00;;
18875;SDS011;9570;50.854;13.778;2023-09-19T02:36:46;1.23;;;1.13;;
18875;SDS011;9570;50.854;13.778;2023-09-19T02:39:12;3.57;;;1.30;;
18875;SDS011;9570;50.854;13.778;2023-09-19T02:41:38;1.57;;;1.03;;
18875;SDS011;9570;50.854;13.778;2023-09-19T02:44:03;1.20;;;1.10;;
18875;SDS011;9570;50.854;13.778;2023-09-19T02:46:32;1.53;;;1.00;;
18875;SDS011;9570;50.854;13.778;2023-09-19T02:48:58;2.10;;;1.23;;
18875;SDS011;9570;50.854;13.778;2023-09-19T02:51:24;1.20;;;1.10;;
18875;SDS011;9570;50.854;13.778;2023-09-19T02:53:50;1.17;;;1.07;;
18875;SDS011;9570;50.854;13.778;2023-09-19T02:56:19;1.77;;;1.20;;
18875;SDS011;9570;50.854;13.778;2023-09-19T02:58:45;3.30;;;1.40;;
18875;SDS011;9570;50.854;13.778;2023-09-19T03:01:10;3.50;;;1.13;;
18875;SDS011;9570;50.854;13.778;2023-09-19T03:03:43;1.87;;;1.13;;
18875;SDS011;9570;50.854;13.778;2023-09-19T03:06:10;1.80;;;1.20;;
18875;SDS011;9570;50.854;13.778;2023-09-19T03:08:37;2.83;;;1.20;;
18875;SDS011;9570;50.854;13.778;2023-09-19T03:11:04;3.03;;;1.30;;
18875;SDS011;9570;50.854;13.778;2023-09-19T03:13:40;1.90;;;1.00;;
18875;SDS011;9570;50.854;13.778;2023-09-19T03:16:07;1.30;;;1.20;;
18875;SDS011;9570;50.854;13.778;2023-09-19T03:18:36;1.93;;;1.10;;
18875;SDS011;9570;50.854;13.778;2023-09-19T03:21:01;4.87;;;1.10;;
18875;SDS011;9570;50.854;13.778;2023-09-19T03:23:27;2.80;;;1.27;;
18875;SDS011;9570;50.854;13.778;2023-09-19T03:25:54;1.90;;;1.03;;
18875;SDS011;9570;50.854;13.778;2023-09-19T03:28:20;2.33;;;1.40;;
18875;SDS011;9570;50.854;13.778;2023-09-19T03:30:57;2.10;;;1.10;;
18875;SDS011;9570;50.854;13.778;2023-09-19T03:33:32;3.07;;;1.30;;
18875;SDS011;9570;50.854;13.778;2023-09-19T03:35:59;1.93;;;1.27;;
18875;SDS011;9570;50.854;13.778;2023-09-19T03:38:25;1.87;;;1.20;;
18875;SDS011;9570;50.854;13.778;2023-09-19T03:40:52;2.20;;;1.23;;
18875;SDS011;9570;50.854;13.778;2023-09-19T03:43:17;5.50;;;1.40;;
18875;SDS011;9570;50.854;13.778;2023-09-19T03:45:44;1.63;;;1.30;;
18875;SDS011;9570;50.854;13.778;2023-09-19T03:48:10;3.70;;;1.20;;
18875;SDS011;9570;50.854;13.778;2023-09-19T03:50:35;1.43;;;1.10;;
18875;SDS011;9570;50.854;13.778;2023-09-19T03:53:01;1.57;;;1.27;;
18875;SDS011;9570;50.854;13.778;2023-09-19T03:55:27;2.43;;;1.17;;
18875;SDS011;9570;50.854;13.778;2023-09-19T03:57:53;1.83;;;1.50;;
18875;SDS011;9570;50.854;13.778;2023-09-19T04:00:18;3.93;;;1.40;;
18875;SDS011;9570;50.854;13.778;2023-09-19T04:02:47;1.53;;;1.43;;
18875;SDS011;9570;50.854;13.778;2023-09-19T04:05:13;1.43;;;1.33;;
18875;SDS011;9570;50.854;13.778;2023-09-19T04:07:38;1.30;;;1.17;;
18875;SDS011;9570;50.854;13.778;2023-09-19T04:10:04;1.87;;;1.40;;
18875;SDS011;9570;50.854;13.778;2023-09-19T04:12:31;2.80;;;1.50;;
18875;SDS011;9570;50.854;13.778;2023-09-19T04:14:57;3.43;;;1.40;;
18875;SDS011;9570;50.854;13.778;2023-09-19T04:17:23;2.00;;;1.30;;
18875;SDS011;9570;50.854;13.778;2023-09-19T04:19:48;2.87;;;1.50;;
18875;SDS011;9570;50.854;13.778;2023-09-19T04:22:14;1.80;;;1.60;;
18875;SDS011;9570;50.854;13.778;2023-09-19T04:24:39;1.80;;;1.33;;
18875;SDS011;9570;50.854;13.778;2023-09-19T04:27:05;2.20;;;1.27;;
18875;SDS011;9570;50.854;13.778;2023-09-19T04:29:31;1.57;;;1.40;;
18875;SDS011;9570;50.854;13.778;2023-09-19T04:31:57;1.67;;;1.50;;
18875;SDS011;9570;50.854;13.778;2023-09-19T04:34:22;2.73;;;1.30;;
18875;SDS011;9570;50.854;13.778;2023-09-19T04:36:49;5.53;;;1.50;;
18875;SDS011;9570;50.854;13.778;2023-09-19T04:39:15;2.10;;;1.20;;
18875;SDS011;9570;50.854;13.778;2023-09-19T04:41:41;5.10;;;1.40;;
18875;SDS011;9570;50.854;13.778;2023-09-19T04:44:07;3.57;;;1.33;;
18875;SDS011;9570;50.854;13.778;2023-09-19T04:46:33;2.17;;;1.20;;
18875;SDS011;9570;50.854;13.778;2023-09-19T04:48:59;2.60;;;1.40;;
18875;SDS011;9570;50.854;13.778;2023-09-19T04:51:25;2.40;;;1.40;;
18875;SDS011;9570;50.854;13.778;2023-09-19T04:53:54;2.10;;;1.50;;
18875;SDS011;9570;50.854;13.778;2023-09-19T04:56:19;3.10;;;1.43;;
18875;SDS011;9570;50.854;13.778;2023-09-19T04:58:46;1.70;;;1.27;;
18875;SDS011;9570;50.854;13.778;2023-09-19T05:01:11;2.83;;;1.20;;
18875;SDS011;9570;50.854;13.778;2023-09-19T05:03:39;2.97;;;1.20;;
18875;SDS011;9570;50.854;13.778;2023-09-19T05:06:04;3.93;;;1.50;;
18875;SDS011;9570;50.854;13.778;2023-09-19T05:08:30;2.40;;;1.20;;
18875;SDS011;9570;50.854;13.778;2023-09-19T05:10:56;2.10;;;1.40;;
18875;SDS011;9570;50.854;13.778;2023-09-19T05:13:21;3.00;;;1.67;;
18875;SDS011;9570;50.854;13.778;2023-09-19T05:15:48;4.40;;;1.60;;
18875;SDS011;9570;50.854;13.778;2023-09-19T05:18:15;2.20;;;1.20;;
18875;SDS011;9570;50.854;13.778;2023-09-19T05:20:40;3.90;;;1.60;;
18875;SDS011;9570;50.854;13.778;2023-09-19T05:23:07;2.43;;;1.70;;
18875;SDS011;9570;50.854;13.778;2023-09-19T05:25:34;5.97;;;1.70;;
18875;SDS011;9570;50.854;13.778;2023-09-19T05:28:07;4.10;;;1.50;;
18875;SDS011;9570;50.854;13.778;2023-09-19T05:30:34;2.37;;;1.43;;
18875;SDS011;9570;50.854;13.778;2023-09-19T05:33:08;1.97;;;1.33;;
18875;SDS011;9570;50.854;13.778;2023-09-19T05:35:34;3.17;;;1.30;;
18875;SDS011;9570;50.854;13.778;2023-09-19T05:38:04;3.03;;;1.47;;
18875;SDS011;9570;50.854;13.778;2023-09-19T05:40:34;2.80;;;1.50;;
18875;SDS011;9570;50.854;13.778;2023-09-19T05:43:00;1.50;;;1.07;;
18875;SDS011;9570;50.854;13.778;2023-09-19T05:45:27;1.77;;;1.30;;
18875;SDS011;9570;50.854;13.778;2023-09-19T05:47:53;1.50;;;1.20;;
18875;SDS011;9570;50.854;13.778;2023-09-19T05:50:29;2.53;;;1.50;;
18875;SDS011;9570;50.854;13.778;2023-09-19T05:52:54;1.33;;;1.10;;
18875;SDS011;9570;50.854;13.778;2023-09-19T05:55:23;1.63;;;1.23;;
18875;SDS011;9570;50.854;13.778;2023-09-19T05:57:53;1.67;;;1.30;;
18875;SDS011;9570;50.854;13.778;2023-09-19T06:00:19;2.03;;;1.40;;
18875;SDS011;9570;50.854;13.778;2023-09-19T06:02:51;2.50;;;1.40;;
18875;SDS011;9570;50.854;13.778;2023-09-19T06:05:17;3.60;;;1.70;;
18875;SDS011;9570;50.854;13.778;2023-09-19T06:07:43;3.77;;;1.30;;
18875;SDS011;9570;50.854;13.778;2023-09-19T06:10:08;1.83;;;1.30;;
18875;SDS011;9570;50.854;13.778;2023-09-19T06:12:38;2.37;;;1.40;;
18875;SDS011;9570;50.854;13.778;2023-09-19T06:15:04;2.50;;;1.60;;
18875;SDS011;9570;50.854;13.778;2023-09-19T06:17:31;2.57;;;2.33;;
18875;SDS011;9570;50.854;13.778;2023-09-19T06:19:56;4.43;;;3.13;;
18875;SDS011;9570;50.854;13.778;2023-09-19T06:22:22;5.23;;;2.00;;
18875;SDS011;9570;50.854;13.778;2023-09-19T06:24:49;1.57;;;1.10;;
18875;SDS011;9570;50.854;13.778;2023-09-19T06:27:14;3.97;;;1.57;;
18875;SDS011;9570;50.854;13.778;2023-09-19T06:29:40;4.20;;;2.10;;
18875;SDS011;9570;50.854;13.778;2023-09-19T06:32:07;3.03;;;2.10;;
18875;SDS011;9570;50.854;13.778;2023-09-19T06:34:33;3.10;;;1.70;;
18875;SDS011;9570;50.854;13.778;2023-09-19T06:36:59;3.70;;;1.87;;
18875;SDS011;9570;50.854;13.778;2023-09-19T06:39:25;2.13;;;1.50;;
18875;SDS011;9570;50.854;13.778;2023-09-19T06:41:51;2.60;;;1.50;;
18875;SDS011;9570;50.854;13.778;2023-09-19T06:44:18;1.40;;;1.20;;
18875;SDS011;9570;50.854;13.778;2023-09-19T06:46:46;1.40;;;1.10;;
18875;SDS011;9570;50.854;13.778;2023-09-19T06:49:14;1.93;;;1.37;;
18875;SDS011;9570;50.854;13.778;2023-09-19T06:51:40;2.00;;;1.17;;
18875;SDS011;9570;50.854;13.778;2023-09-19T06:54:06;1.97;;;1.27;;
18875;SDS011;9570;50.854;13.778;2023-09-19T06:56:32;4.63;;;1.47;;
18875;SDS011;9570;50.854;13.778;2023-09-19T06:58:58;2.20;;;1.10;;
18875;SDS011;9570;50.854;13.778;2023-09-19T07:01:23;2.47;;;1.13;;
18875;SDS011;9570;50.854;13.778;2023-09-19T07:03:50;1.50;;;1.27;;
18875;SDS011;9570;50.854;13.778;2023-09-19T07:06:15;2.10;;;1.37;;
18875;SDS011;9570;50.854;13.778;2023-09-19T07:08:41;2.97;;;1.20;;
18875;SDS011;9570;50.854;13.778;2023-09-19T07:11:07;3.67;;;1.00;;
18875;SDS011;9570;50.854;13.778;2023-09-19T07:13:32;2.03;;;1.23;;
18875;SDS011;9570;50.854;13.778;2023-09-19T07:15:58;2.67;;;1.13;;
18875;SDS011;9570;50.854;13.778;2023-09-19T07:18:24;1.40;;;1.30;;
18875;SDS011;9570;50.854;13.778;2023-09-19T07:20:50;2.90;;;1.30;;
18875;SDS011;9570;50.854;13.778;2023-09-19T07:23:16;2.10;;;1.40;;
18875;SDS011;9570;50.854;13.778;2023-09-19T07:25:43;1.27;;;1.17;;
18875;SDS011;9570;50.854;13.778;2023-09-19T07:28:08;1.73;;;1.33;;
18875;SDS011;9570;50.854;13.778;2023-09-19T07:30:35;2.10;;;1.20;;
18875;SDS011;9570;50.854;13.778;2023-09-19T07:33:06;2.13;;;1.30;;
18875;SDS011;9570;50.854;13.778;2023-09-19T07:35:32;1.47;;;1.30;;
18875;SDS011;9570;50.854;13.778;2023-09-19T07:37:58;1.77;;;1.30;;
18875;SDS011;9570;50.854;13.778;2023-09-19T07:40:26;1.60;;;1.33;;
18875;SDS011;9570;50.854;13.778;2023-09-19T07:42:54;1.57;;;1.10;;
18875;SDS011;9570;50.854;13.778;2023-09-19T07:45:20;2.87;;;1.40;;
18875;SDS011;9570;50.854;13.778;2023-09-19T07:50:12;2.03;;;1.23;;
18875;SDS011;9570;50.854;13.778;2023-09-19T07:52:38;1.70;;;1.13;;
18875;SDS011;9570;50.854;13.778;2023-09-19T07:55:07;2.03;;;1.20;;
18875;SDS011;9570;50.854;13.778;2023-09-19T07:57:34;1.50;;;1.13;;
18875;SDS011;9570;50.854;13.778;2023-09-19T08:00:03;2.77;;;1.10;;
18875;SDS011;9570;50.854;13.778;2023-09-19T08:02:36;2.13;;;1.00;;
18875;SDS011;9570;50.854;13.778;2023-09-19T08:05:05;1.50;;;1.10;;
18875;SDS011;9570;50.854;13.778;2023-09-19T08:07:32;1.20;;;1.00;;
18875;SDS011;9570;50.854;13.778;2023-09-19T08:09:57;3.77;;;1.40;;
18875;SDS011;9570;50.854;13.778;2023-09-19T08:12:23;2.37;;;1.53;;
18875;SDS011;9570;50.854;13.778;2023-09-19T08:14:49;3.23;;;1.20;;
18875;SDS011;9570;50.854;13.778;2023-09-19T08:17:15;1.87;;;1.13;;
18875;SDS011;9570;50.854;13.778;2023-09-19T08:19:41;3.17;;;1.47;;
18875;SDS011;9570;50.854;13.778;2023-09-19T08:22:09;3.07;;;1.30;;
18875;SDS011;9570;50.854;13.778;2023-09-19T08:24:35;1.20;;;1.10;;
18875;SDS011;9570;50.854;13.778;2023-09-19T08:27:01;4.53;;;1.23;;
18875;SDS011;9570;50.854;13.778;2023-09-19T08:29:29;1.53;;;1.30;;
18875;SDS011;9570;50.854;13.778;2023-09-19T08:31:56;1.37;;;1.00;;
18875;SDS011;9570;50.854;13.778;2023-09-19T08:34:23;3.87;;;1.30;;
18875;SDS011;9570;50.854;13.778;2023-09-19T08:36:53;5.30;;;1.40;;
18875;SDS011;9570;50.854;13.778;2023-09-19T08:39:22;1.70;;;1.20;;
18875;SDS011;9570;50.854;13.778;2023-09-19T08:41:48;1.67;;;1.17;;
18875;SDS011;9570;50.854;13.778;2023-09-19T08:44:14;2.37;;;1.23;;
18875;SDS011;9570;50.854;13.778;2023-09-19T08:46:41;2.70;;;1.10;;
18875;SDS011;9570;50.854;13.778;2023-09-19T08:49:10;1.73;;;1.10;;
18875;SDS011;9570;50.854;13.778;2023-09-19T08:51:50;1.93;;;1.10;;
18875;SDS011;9570;50.854;13.778;2023-09-19T08:54:25;2.07;;;1.23;;
18875;SDS011;9570;50.854;13.778;2023-09-19T08:56:54;2.50;;;1.17;;
18875;SDS011;9570;50.854;13.778;2023-09-19T08:59:22;1.93;;;1.33;;
18875;SDS011;9570;50.854;13.778;2023-09-19T09:01:52;1.83;;;1.10;;
18875;SDS011;9570;50.854;13.778;2023-09-19T09:04:20;1.20;;;1.10;;
18875;SDS011;9570;50.854;13.778;2023-09-19T09:06:47;2.20;;;1.37;;
18875;SDS011;9570;50.854;13.778;2023-09-19T09:09:15;2.13;;;1.10;;
18875;SDS011;9570;50.854;13.778;2023-09-19T09:11:41;1.67;;;1.27;;
18875;SDS011;9570;50.854;13.778;2023-09-19T09:14:07;1.30;;;1.00;;
18875;SDS011;9570;50.854;13.778;2023-09-19T09:16:33;2.17;;;1.20;;
18875;SDS011;9570;50.854;13.778;2023-09-19T09:18:59;2.63;;;1.13;;
18875;SDS011;9570;50.854;13.778;2023-09-19T09:21:25;3.03;;;1.20;;
18875;SDS011;9570;50.854;13.778;2023-09-19T09:23:51;2.83;;;1.10;;
18875;SDS011;9570;50.854;13.778;2023-09-19T09:26:31;1.60;;;1.20;;
18875;SDS011;9570;50.854;13.778;2023-09-19T09:29:03;1.77;;;1.30;;
18875;SDS011;9570;50.854;13.778;2023-09-19T09:31:29;2.23;;;1.50;;
18875;SDS011;9570;50.854;13.778;2023-09-19T09:33:55;5.20;;;1.50;;
18875;SDS011;9570;50.854;13.778;2023-09-19T09:36:33;2.87;;;1.23;;
18875;SDS011;9570;50.854;13.778;2023-09-19T09:39:00;2.47;;;1.40;;
18875;SDS011;9570;50.854;13.778;2023-09-19T09:41:40;1.33;;;1.20;;
18875;SDS011;9570;50.854;13.778;2023-09-19T09:44:16;2.40;;;1.20;;
18875;SDS011;9570;50.854;13.778;2023-09-19T09:46:46;2.20;;;1.30;;
18875;SDS011;9570;50.854;13.778;2023-09-19T09:49:24;1.20;;;1.10;;
18875;SDS011;9570;50.854;13.778;2023-09-19T09:55:04;1.87;;;1.10;;
18875;SDS011;9570;50.854;13.778;2023-09-19T09:57:33;1.93;;;1.00;;
18875;SDS011;9570;50.854;13.778;2023-09-19T09:59:59;1.37;;;1.17;;
18875;SDS011;9570;50.854;13.778;2023-09-19T10:02:38;1.37;;;1.27;;
18875;SDS011;9570;50.854;13.778;2023-09-19T10:05:18;1.83;;;1.30;;
18875;SDS011;9570;50.854;13.778;2023-09-19T10:07:45;1.60;;;1.20;;
18875;SDS011;9570;50.854;13.778;2023-09-19T10:10:37;2.37;;;1.00;;
18875;SDS011;9570;50.854;13.778;2023-09-19T10:13:06;1.40;;;1.03;;
18875;SDS011;9570;50.854;13.778;2023-09-19T10:15:47;1.37;;;1.13;;
18875;SDS011;9570;50.854;13.778;2023-09-19T10:18:20;1.60;;;0.90;;
18875;SDS011;9570;50.854;13.778;2023-09-19T10:20:47;2.67;;;1.20;;
18875;SDS011;9570;50.854;13.778;2023-09-19T10:23:20;1.30;;;1.10;;
18875;SDS011;9570;50.854;13.778;2023-09-19T10:25:50;1.37;;;1.00;;
18875;SDS011;9570;50.854;13.778;2023-09-19T10:28:17;1.77;;;0.90;;
18875;SDS011;9570;50.854;13.778;2023-09-19T10:30:47;1.27;;;1.10;;
18875;SDS011;9570;50.854;13.778;2023-09-19T10:33:16;2.03;;;1.23;;
18875;SDS011;9570;50.854;13.778;2023-09-19T10:35:46;1.60;;;1.10;;
18875;SDS011;9570;50.854;13.778;2023-09-19T10:38:13;1.07;;;0.90;;
18875;SDS011;9570;50.854;13.778;2023-09-19T10:40:42;1.30;;;1.00;;
18875;SDS011;9570;50.854;13.778;2023-09-19T10:43:16;1.20;;;0.90;;
18875;SDS011;9570;50.854;13.778;2023-09-19T10:45:46;1.20;;;0.90;;
18875;SDS011;9570;50.854;13.778;2023-09-19T10:48:18;2.57;;;1.17;;
18875;SDS011;9570;50.854;13.778;2023-09-19T10:53:39;2.47;;;1.00;;
18875;SDS011;9570;50.854;13.778;2023-09-19T10:56:35;1.70;;;1.10;;
18875;SDS011;9570;50.854;13.778;2023-09-19T10:59:06;5.20;;;1.30;;
18875;SDS011;9570;50.854;13.778;2023-09-19T11:07:01;1.47;;;0.97;;
18875;SDS011;9570;50.854;13.778;2023-09-19T11:09:45;1.43;;;0.90;;
18875;SDS011;9570;50.854;13.778;2023-09-19T11:15:00;3.73;;;1.17;;
18875;SDS011;9570;50.854;13.778;2023-09-19T11:17:36;1.70;;;1.10;;
18875;SDS011;9570;50.854;13.778;2023-09-19T11:30:44;1.53;;;1.07;;
18875;SDS011;9570;50.854;13.778;2023-09-19T11:46:34;1.97;;;0.90;;
18875;SDS011;9570;50.854;13.778;2023-09-19T11:49:16;2.17;;;1.20;;
18875;SDS011;9570;50.854;13.778;2023-09-19T11:51:48;2.97;;;1.30;;
18875;SDS011;9570;50.854;13.778;2023-09-19T11:54:16;1.00;;;0.90;;
18875;SDS011;9570;50.854;13.778;2023-09-19T11:56:50;2.40;;;0.93;;
18875;SDS011;9570;50.854;13.778;2023-09-19T11:59:31;4.17;;;1.10;;
18875;SDS011;9570;50.854;13.778;2023-09-19T12:02:00;2.17;;;1.07;;
18875;SDS011;9570;50.854;13.778;2023-09-19T12:09:40;1.30;;;1.20;;
18875;SDS011;9570;50.854;13.778;2023-09-19T12:12:09;2.70;;;1.27;;
18875;SDS011;9570;50.854;13.778;2023-09-19T12:14:37;3.47;;;1.40;;
18875;SDS011;9570;50.854;13.778;2023-09-19T12:17:04;2.83;;;1.63;;
18875;SDS011;9570;50.854;13.778;2023-09-19T12:19:29;2.43;;;1.20;;
18875;SDS011;9570;50.854;13.778;2023-09-19T12:24:23;2.37;;;1.30;;
18875;SDS011;9570;50.854;13.778;2023-09-19T12:26:51;2.63;;;1.40;;
18875;SDS011;9570;50.854;13.778;2023-09-19T12:31:47;1.87;;;1.50;;
18875;SDS011;9570;50.854;13.778;2023-09-19T12:34:20;1.77;;;1.20;;
18875;SDS011;9570;50.854;13.778;2023-09-19T12:36:48;2.53;;;1.43;;
18875;SDS011;9570;50.854;13.778;2023-09-19T12:39:23;2.23;;;1.60;;
18875;SDS011;9570;50.854;13.778;2023-09-19T12:41:54;1.47;;;1.33;;
18875;SDS011;9570;50.854;13.778;2023-09-19T12:44:20;2.13;;;1.50;;
18875;SDS011;9570;50.854;13.778;2023-09-19T12:46:46;1.50;;;1.40;;
18875;SDS011;9570;50.854;13.778;2023-09-19T12:49:15;2.17;;;1.40;;
18875;SDS011;9570;50.854;13.778;2023-09-19T12:51:42;2.20;;;1.40;;
18875;SDS011;9570;50.854;13.778;2023-09-19T12:54:08;1.60;;;1.27;;
18875;SDS011;9570;50.854;13.778;2023-09-19T12:56:42;2.47;;;1.53;;
18875;SDS011;9570;50.854;13.778;2023-09-19T12:59:14;2.57;;;1.43;;
18875;SDS011;9570;50.854;13.778;2023-09-19T13:01:40;2.67;;;1.60;;
18875;SDS011;9570;50.854;13.778;2023-09-19T13:04:15;1.90;;;1.20;;
18875;SDS011;9570;50.854;13.778;2023-09-19T13:06:51;4.60;;;1.43;;
18875;SDS011;9570;50.854;13.778;2023-09-19T13:09:18;3.23;;;1.43;;
18875;SDS011;9570;50.854;13.778;2023-09-19T13:11:45;2.57;;;1.77;;
18875;SDS011;9570;50.854;13.778;2023-09-19T13:14:26;2.80;;;1.60;;
18875;SDS011;9570;50.854;13.778;2023-09-19T13:19:42;2.27;;;1.70;;
18875;SDS011;9570;50.854;13.778;2023-09-19T13:25:08;2.23;;;1.60;;
18875;SDS011;9570;50.854;13.778;2023-09-19T13:27:38;2.13;;;1.70;;
18875;SDS011;9570;50.854;13.778;2023-09-19T13:30:05;2.17;;;1.80;;
18875;SDS011;9570;50.854;13.778;2023-09-19T13:32:32;2.40;;;1.53;;
18875;SDS011;9570;50.854;13.778;2023-09-19T13:34:58;2.53;;;1.67;;
18875;SDS011;9570;50.854;13.778;2023-09-19T13:37:24;2.77;;;1.70;;
18875;SDS011;9570;50.854;13.778;2023-09-19T13:39:51;1.70;;;1.57;;
18875;SDS011;9570;50.854;13.778;2023-09-19T13:42:17;4.17;;;1.70;;
18875;SDS011;9570;50.854;13.778;2023-09-19T13:44:43;2.37;;;1.60;;
18875;SDS011;9570;50.854;13.778;2023-09-19T13:47:09;4.07;;;1.80;;
18875;SDS011;9570;50.854;13.778;2023-09-19T13:49:35;1.40;;;1.30;;
18875;SDS011;9570;50.854;13.778;2023-09-19T13:52:02;2.07;;;1.70;;
18875;SDS011;9570;50.854;13.778;2023-09-19T13:54:30;2.17;;;1.60;;
18875;SDS011;9570;50.854;13.778;2023-09-19T13:56:56;2.47;;;1.30;;
18875;SDS011;9570;50.854;13.778;2023-09-19T13:59:21;2.23;;;1.53;;
18875;SDS011;9570;50.854;13.778;2023-09-19T14:01:49;5.17;;;1.60;;
18875;SDS011;9570;50.854;13.778;2023-09-19T14:04:15;2.00;;;1.40;;
18875;SDS011;9570;50.854;13.778;2023-09-19T14:06:42;3.47;;;1.60;;
18875;SDS011;9570;50.854;13.778;2023-09-19T14:09:08;2.30;;;1.53;;
18875;SDS011;9570;50.854;13.778;2023-09-19T14:11:35;2.63;;;1.50;;
18875;SDS011;9570;50.854;13.778;2023-09-19T14:14:01;2.43;;;1.60;;
18875;SDS011;9570;50.854;13.778;2023-09-19T14:16:26;3.07;;;2.03;;
18875;SDS011;9570;50.854;13.778;2023-09-19T14:18:55;3.50;;;1.70;;
18875;SDS011;9570;50.854;13.778;2023-09-19T14:21:21;2.17;;;1.63;;
18875;SDS011;9570;50.854;13.778;2023-09-19T14:23:48;2.37;;;1.80;;
18875;SDS011;9570;50.854;13.778;2023-09-19T14:26:14;2.43;;;1.50;;
18875;SDS011;9570;50.854;13.778;2023-09-19T14:28:41;2.67;;;1.77;;
18875;SDS011;9570;50.854;13.778;2023-09-19T14:31:10;2.73;;;1.50;;
18875;SDS011;9570;50.854;13.778;2023-09-19T14:33:36;2.30;;;1.50;;
18875;SDS011;9570;50.854;13.778;2023-09-19T14:36:06;2.77;;;1.60;;
18875;SDS011;9570;50.854;13.778;2023-09-19T14:38:34;2.53;;;1.60;;
18875;SDS011;9570;50.854;13.778;2023-09-19T14:41:00;2.10;;;1.50;;
18875;SDS011;9570;50.854;13.778;2023-09-19T14:43:26;2.23;;;1.63;;
18875;SDS011;9570;50.854;13.778;2023-09-19T14:45:54;4.07;;;1.60;;
18875;SDS011;9570;50.854;13.778;2023-09-19T14:48:27;2.80;;;1.80;;
18875;SDS011;9570;50.854;13.778;2023-09-19T14:50:53;2.90;;;1.70;;
18875;SDS011;9570;50.854;13.778;2023-09-19T14:53:20;3.87;;;1.70;;
18875;SDS011;9570;50.854;13.778;2023-09-19T14:55:46;3.00;;;1.50;;
18875;SDS011;9570;50.854;13.778;2023-09-19T14:58:12;2.30;;;1.50;;
18875;SDS011;9570;50.854;13.778;2023-09-19T15:00:38;1.90;;;1.67;;
18875;SDS011;9570;50.854;13.778;2023-09-19T15:03:04;2.47;;;1.40;;
18875;SDS011;9570;50.854;13.778;2023-09-19T15:05:30;2.37;;;1.67;;
18875;SDS011;9570;50.854;13.778;2023-09-19T15:07:56;3.87;;;1.60;;
18875;SDS011;9570;50.854;13.778;2023-09-19T15:10:22;1.80;;;1.40;;
18875;SDS011;9570;50.854;13.778;2023-09-19T15:12:48;3.20;;;1.80;;
18875;SDS011;9570;50.854;13.778;2023-09-19T15:15:13;1.60;;;1.50;;
18875;SDS011;9570;50.854;13.778;2023-09-19T15:17:39;2.70;;;1.70;;
18875;SDS011;9570;50.854;13.778;2023-09-19T15:20:05;2.87;;;1.63;;
18875;SDS011;9570;50.854;13.778;2023-09-19T15:22:35;1.67;;;1.30;;
18875;SDS011;9570;50.854;13.778;2023-09-19T15:25:01;2.90;;;1.80;;
18875;SDS011;9570;50.854;13.778;2023-09-19T15:27:27;3.40;;;1.50;;
18875;SDS011;9570;50.854;13.778;2023-09-19T15:29:55;2.70;;;1.70;;
18875;SDS011;9570;50.854;13.778;2023-09-19T15:32:25;2.40;;;1.70;;
18875;SDS011;9570;50.854;13.778;2023-09-19T15:34:51;2.80;;;1.30;;
18875;SDS011;9570;50.854;13.778;2023-09-19T15:37:16;1.83;;;1.60;;
18875;SDS011;9570;50.854;13.778;2023-09-19T15:39:42;2.10;;;1.73;;
18875;SDS011;9570;50.854;13.778;2023-09-19T15:42:09;2.50;;;1.87;;
18875;SDS011;9570;50.854;13.778;2023-09-19T15:44:35;2.67;;;1.50;;
18875;SDS011;9570;50.854;13.778;2023-09-19T15:47:02;2.23;;;1.63;;
18875;SDS011;9570;50.854;13.778;2023-09-19T15:49:28;3.10;;;2.00;;
18875;SDS011;9570;50.854;13.778;2023-09-19T15:51:53;2.43;;;1.90;;
18875;SDS011;9570;50.854;13.778;2023-09-19T15:54:19;2.50;;;1.63;;
18875;SDS011;9570;50.854;13.778;2023-09-19T15:56:45;3.93;;;1.77;;
18875;SDS011;9570;50.854;13.778;2023-09-19T15:59:16;3.97;;;2.07;;
18875;SDS011;9570;50.854;13.778;2023-09-19T16:01:43;2.80;;;2.30;;
18875;SDS011;9570;50.854;13.778;2023-09-19T16:04:09;3.40;;;2.00;;